createdAt,value
2023-02-22T00:03:00.042Z,7.38
2023-02-22T00:06:05.145Z,7.47
2023-02-22T00:09:09.349Z,6.90
2023-02-22T00:12:11.253Z,7.47
2023-02-22T00:15:15.639Z,6.75
2023-02-22T00:18:19.776Z,6.45
2023-02-22T00:21:22.279Z,7.05
2023-02-22T00:24:24.705Z,7.28
2023-02-22T00:27:26.556Z,7.57
2023-02-22T00:30:32.005Z,7.03
2023-02-22T00:33:33.953Z,7.20
2023-02-22T00:36:35.776Z,7.03
2023-02-22T00:39:37.696Z,6.43
2023-02-22T00:42:39.518Z,6.90
2023-02-22T00:45:41.865Z,6.28
2023-02-22T00:48:44.642Z,6.32
2023-02-22T00:51:46.459Z,5.68
2023-02-22T00:54:48.294Z,5.65
2023-02-22T00:57:51.310Z,6.18
2023-02-22T01:03:55.086Z,6.20
2023-02-22T01:06:57.148Z,6.30
2023-02-22T01:10:03.074Z,6.65
2023-02-22T01:13:09.317Z,7.15
2023-02-22T01:16:11.544Z,6.85
2023-02-22T01:19:13.848Z,6.95
2023-02-22T01:22:15.786Z,7.47
2023-02-22T01:25:20.836Z,7.68
2023-02-22T01:28:23.720Z,7.93
2023-02-22T01:31:25.667Z,7.37
2023-02-22T01:34:27.782Z,8.48
2023-02-22T01:37:29.710Z,8.17
2023-02-22T01:40:35.272Z,8.70
2023-02-22T01:43:38.754Z,8.23
2023-02-22T01:46:40.680Z,6.32
2023-02-22T01:49:48.133Z,7.95
2023-02-22T01:52:50.545Z,7.65
2023-02-22T01:55:55.553Z,6.75
2023-02-22T01:59:01.779Z,8.52
2023-02-22T02:02:07.483Z,8.57
2023-02-22T02:05:10.242Z,8.80
2023-02-22T02:08:36.092Z,8.90
2023-02-22T02:11:43.164Z,8.63
2023-02-22T02:14:45.030Z,9.02
2023-02-22T02:17:49.301Z,8.88
2023-02-22T02:21:39.153Z,9.25
2023-02-22T02:25:10.975Z,9.20
2023-02-22T02:28:34.845Z,10.07
2023-02-22T02:32:11.980Z,10.52
2023-02-22T02:35:17.045Z,9.68
2023-02-22T02:38:40.048Z,10.65
2023-02-22T02:41:50.800Z,11.02
2023-02-22T02:44:58.515Z,10.50
2023-02-22T02:48:05.984Z,12.63
2023-02-22T02:51:10.912Z,12.05
2023-02-22T02:54:14.794Z,12.18
2023-02-22T02:57:16.891Z,12.80
2023-02-22T03:00:23.179Z,13.47
2023-02-22T03:03:57.396Z,13.75
2023-02-22T03:07:13.424Z,13.27
2023-02-22T03:10:24.773Z,14.82
2023-02-22T03:13:40.535Z,14.30
2023-02-22T03:16:56.662Z,15.20
2023-02-22T03:20:09.804Z,14.50
2023-02-22T03:23:25.486Z,15.02
2023-02-22T03:27:12.474Z,15.40
2023-02-22T03:30:31.894Z,15.65
2023-02-22T03:33:40.400Z,16.30
2023-02-22T03:36:56.058Z,16.65
2023-02-22T03:40:01.040Z,18.85
2023-02-22T03:43:14.880Z,20.02
2023-02-22T03:46:19.591Z,19.58
2023-02-22T03:49:39.471Z,20.83
2023-02-22T03:52:44.201Z,21.38
2023-02-22T03:55:55.688Z,21.67
2023-02-22T03:58:58.095Z,19.27
2023-02-22T04:02:00.043Z,21.40
2023-02-22T04:05:02.271Z,18.80
2023-02-22T04:08:06.509Z,19.10
2023-02-22T04:11:09.031Z,17.77
2023-02-22T04:14:11.245Z,17.50
2023-02-22T04:17:13.137Z,16.92
2023-02-22T04:20:15.591Z,17.33
2023-02-22T04:23:40.352Z,17.77
2023-02-22T04:29:46.110Z,14.90
2023-02-22T04:32:48.455Z,17.92
2023-02-22T04:35:54.209Z,17.50
2023-02-22T04:38:56.137Z,16.03
2023-02-22T04:41:58.059Z,18.85
2023-02-22T04:45:00.355Z,18.30
2023-02-22T04:48:02.415Z,17.60
2023-02-22T04:51:04.609Z,17.73
2023-02-22T04:57:11.491Z,15.77
2023-02-22T05:00:17.811Z,17.23
2023-02-22T05:03:19.908Z,16.95
2023-02-22T05:06:21.803Z,17.67
2023-02-22T05:09:23.769Z,16.98
2023-02-22T05:12:27.725Z,16.80
2023-02-22T05:15:29.626Z,17.10
2023-02-22T05:18:31.489Z,18.10
2023-02-22T05:21:33.624Z,18.88
2023-02-22T05:24:35.529Z,19.33
2023-02-22T05:27:37.395Z,19.45
2023-02-22T05:30:39.947Z,19.35
2023-02-22T05:33:41.943Z,18.77
2023-02-22T05:36:43.929Z,17.50
2023-02-22T05:39:46.590Z,18.73
2023-02-22T05:42:49.971Z,16.05
2023-02-22T05:45:51.800Z,13.43
2023-02-22T05:48:53.665Z,11.63
2023-02-22T05:51:59.612Z,11.25
2023-02-22T05:55:01.505Z,11.88
2023-02-22T05:58:05.969Z,10.52
2023-02-22T06:01:07.859Z,11.48
2023-02-22T06:04:09.698Z,10.20
2023-02-22T06:07:12.110Z,10.73
2023-02-22T06:10:14.062Z,10.52
2023-02-22T06:13:16.028Z,11.30
2023-02-22T06:16:18.159Z,10.23
2023-02-22T06:19:20.125Z,9.30
2023-02-22T06:22:21.946Z,9.55
2023-02-22T06:25:31.265Z,9.88
2023-02-22T06:28:33.135Z,9.80
2023-02-22T06:31:35.520Z,9.88
2023-02-22T06:34:37.386Z,8.02
2023-02-22T06:37:40.360Z,9.88
2023-02-22T06:43:44.036Z,8.63
2023-02-22T06:46:51.250Z,9.18
2023-02-22T06:49:54.612Z,10.07
2023-02-22T06:52:57.400Z,10.30
2023-02-22T06:55:59.281Z,9.70
2023-02-22T06:59:02.822Z,11.88
2023-02-22T07:02:04.826Z,9.77
2023-02-22T07:05:06.877Z,10.60
2023-02-22T07:08:08.922Z,9.63
2023-02-22T07:14:16.239Z,9.90
2023-02-22T07:17:18.129Z,12.00
2023-02-22T07:20:21.119Z,9.93
2023-02-22T07:26:27.075Z,11.65
2023-02-22T07:29:28.960Z,15.55
2023-02-22T07:32:30.946Z,15.48
2023-02-22T07:35:38.640Z,8.60
2023-02-22T07:38:40.841Z,9.55
2023-02-22T07:41:42.701Z,9.35
2023-02-22T07:44:57.047Z,10.45
2023-02-22T07:48:00.618Z,9.77
2023-02-22T07:51:02.399Z,9.60
2023-02-22T07:54:04.331Z,10.40
2023-02-22T07:57:06.086Z,9.52
2023-02-22T08:00:08.807Z,9.60
2023-02-22T08:03:17.223Z,9.43
2023-02-22T08:06:21.039Z,11.55
2023-02-22T08:09:23.731Z,9.95
2023-02-22T08:12:26.763Z,10.60
2023-02-22T08:15:31.792Z,9.13
2023-02-22T08:18:33.767Z,9.40
2023-02-22T08:21:35.628Z,9.60
2023-02-22T08:24:37.534Z,10.55
2023-02-22T08:27:39.612Z,9.05
2023-02-22T08:30:44.867Z,10.13
2023-02-22T08:33:50.105Z,10.38
2023-02-22T08:36:52.065Z,9.25
2023-02-22T08:39:56.237Z,8.85
2023-02-22T08:42:58.899Z,8.65
2023-02-22T08:46:01.044Z,8.50
2023-02-22T08:49:03.300Z,8.57
2023-02-22T08:52:05.400Z,9.52
2023-02-22T08:55:07.424Z,9.53
2023-02-22T08:58:09.596Z,8.50
2023-02-22T09:01:12.118Z,9.38
2023-02-22T09:04:14.745Z,8.70
2023-02-22T09:07:17.229Z,9.98
2023-02-22T09:10:24.573Z,8.98
2023-02-22T09:13:26.507Z,10.00
2023-02-22T09:16:29.269Z,10.07
2023-02-22T09:19:31.262Z,10.20
2023-02-22T09:22:33.438Z,10.10
2023-02-22T09:25:35.877Z,8.90
2023-02-22T09:28:37.803Z,10.00
2023-02-22T09:31:41.251Z,9.07
2023-02-22T09:34:45.963Z,7.97
2023-02-22T09:37:47.964Z,8.68
2023-02-22T09:40:52.491Z,8.93
2023-02-22T09:44:22.636Z,8.50
2023-02-22T09:47:40.356Z,9.27
2023-02-22T09:50:46.325Z,7.82
2023-02-22T09:53:52.380Z,9.18
2023-02-22T09:56:58.419Z,9.07
2023-02-22T10:00:14.916Z,8.43
2023-02-22T10:03:39.168Z,12.65
2023-02-22T10:06:54.962Z,11.15
2023-02-22T10:09:58.522Z,31.10
2023-02-22T10:13:09.377Z,10.82
2023-02-22T10:16:48.525Z,13.38
2023-02-22T10:20:17.546Z,50.85
2023-02-22T10:23:44.850Z,19.00
2023-02-22T10:26:47.202Z,17.60
2023-02-22T10:30:24.646Z,10.60
2023-02-22T10:33:32.236Z,18.05
2023-02-22T10:36:34.604Z,11.75
2023-02-22T10:39:39.873Z,9.95
2023-02-22T10:42:41.813Z,10.68
2023-02-22T10:45:43.704Z,9.88
2023-02-22T10:48:48.778Z,11.02
2023-02-22T10:52:01.368Z,12.45
2023-02-22T10:55:14.975Z,13.77
2023-02-22T10:58:17.428Z,11.00
2023-02-22T11:01:32.789Z,12.30
2023-02-22T11:04:55.449Z,12.40
2023-02-22T11:08:22.322Z,12.82
2023-02-22T11:11:26.253Z,10.40
2023-02-22T11:14:31.075Z,17.50
2023-02-22T11:17:34.668Z,11.75
2023-02-22T11:20:39.737Z,14.57
2023-02-22T11:23:44.937Z,11.27
2023-02-22T11:26:54.811Z,48.30
2023-02-22T11:30:11.819Z,42.33
2023-02-22T11:33:17.027Z,15.05
2023-02-22T11:36:37.440Z,12.90
2023-02-22T11:39:43.580Z,29.63
2023-02-22T11:42:47.008Z,27.73
2023-02-22T11:46:12.843Z,25.75
2023-02-22T11:49:18.180Z,16.08
2023-02-22T11:52:23.021Z,21.73
2023-02-22T11:55:42.788Z,21.95
2023-02-22T11:59:29.398Z,10.48
2023-02-22T12:02:51.793Z,36.60
2023-02-22T12:06:07.066Z,20.70
2023-02-22T12:09:14.963Z,59.92
2023-02-22T12:12:38.561Z,12.75
2023-02-22T12:15:56.436Z,11.70
2023-02-22T12:19:13.806Z,24.13
2023-02-22T12:22:24.270Z,7.45
2023-02-22T12:25:31.670Z,12.35
2023-02-22T12:28:53.994Z,14.45
2023-02-22T12:32:16.412Z,9.98
2023-02-22T12:35:25.689Z,19.77
2023-02-22T12:38:39.916Z,11.18
2023-02-22T12:41:48.504Z,11.20
2023-02-22T12:45:00.165Z,33.45
2023-02-22T12:48:39.712Z,17.40
2023-02-22T12:52:03.094Z,25.48
2023-02-22T12:55:31.784Z,11.38
2023-02-22T12:58:45.227Z,16.35
2023-02-22T13:01:55.230Z,22.40
2023-02-22T13:04:57.521Z,19.30
2023-02-22T13:08:40.715Z,11.35
2023-02-22T13:12:07.042Z,15.23
2023-02-22T13:15:18.054Z,9.38
2023-02-22T13:18:33.187Z,10.25
2023-02-22T13:21:43.766Z,15.73
2023-02-22T13:24:56.751Z,12.07
2023-02-22T13:28:13.763Z,5.47
2023-02-22T13:31:47.548Z,7.07
2023-02-22T13:34:56.009Z,6.22
2023-02-22T13:38:08.303Z,6.78
2023-02-22T13:41:28.511Z,7.50
2023-02-22T13:45:08.022Z,6.20
2023-02-22T13:48:12.874Z,7.45
2023-02-22T13:51:36.578Z,6.70
2023-02-22T13:54:46.705Z,6.40
2023-02-22T13:57:51.813Z,5.80
2023-02-22T14:00:58.027Z,6.20
2023-02-22T14:04:27.834Z,5.90
2023-02-22T14:07:33.820Z,5.68
2023-02-22T14:10:39.904Z,5.70
2023-02-22T14:13:55.755Z,6.32
2023-02-22T14:17:20.806Z,7.55
2023-02-22T14:20:30.435Z,10.35
2023-02-22T14:23:52.203Z,6.15
2023-02-22T14:27:14.021Z,7.93
2023-02-22T14:30:26.515Z,7.28
2023-02-22T14:33:52.466Z,8.25
2023-02-22T14:37:05.366Z,8.10
2023-02-22T14:40:21.898Z,9.10
2023-02-22T14:43:25.506Z,11.10
2023-02-22T14:46:33.122Z,8.93
2023-02-22T14:49:41.486Z,9.32
2023-02-22T14:52:46.707Z,9.20
2023-02-22T14:56:15.559Z,23.58
2023-02-22T14:59:17.502Z,10.95
2023-02-22T15:02:22.770Z,7.57
2023-02-22T15:05:30.373Z,10.48
2023-02-22T15:08:34.279Z,7.40
2023-02-22T15:11:36.279Z,8.25
2023-02-22T15:14:39.052Z,8.23
2023-02-22T15:17:41.332Z,8.45
2023-02-22T15:20:43.299Z,10.40
2023-02-22T15:23:51.374Z,13.35
2023-02-22T15:27:01.952Z,13.60
2023-02-22T15:30:29.843Z,13.82
2023-02-22T15:33:38.153Z,13.25
2023-02-22T15:36:44.393Z,20.20
2023-02-22T15:39:46.267Z,17.35
2023-02-22T15:42:53.101Z,17.02
2023-02-22T15:45:56.206Z,12.55
2023-02-22T15:49:10.190Z,11.82
2023-02-22T15:52:26.023Z,19.80
2023-02-22T15:55:29.892Z,15.05
2023-02-22T15:58:31.935Z,17.58
2023-02-22T16:01:40.708Z,16.13
2023-02-22T16:04:51.376Z,25.00
2023-02-22T16:08:00.007Z,14.95
2023-02-22T16:11:13.600Z,26.33
2023-02-22T16:14:28.790Z,15.98
2023-02-22T16:17:39.861Z,11.63
2023-02-22T16:20:44.640Z,12.82
2023-02-22T16:23:57.399Z,13.25
2023-02-22T16:27:05.883Z,20.23
2023-02-22T16:30:24.436Z,17.38
2023-02-22T16:33:32.182Z,17.10
2023-02-22T16:36:45.297Z,15.18
2023-02-22T16:42:51.490Z,24.92
2023-02-22T16:45:53.432Z,23.58
2023-02-22T16:48:55.311Z,29.67
2023-02-22T16:52:01.632Z,20.42
2023-02-22T16:55:05.233Z,22.17
2023-02-22T16:58:07.307Z,25.08
2023-02-22T17:01:09.668Z,16.93
2023-02-22T17:04:20.448Z,14.48
2023-02-22T17:07:30.851Z,12.88
2023-02-22T17:10:34.189Z,12.07
2023-02-22T17:13:36.121Z,11.30
2023-02-22T17:16:37.905Z,13.40
2023-02-22T17:19:39.865Z,15.15
2023-02-22T17:22:43.078Z,16.67
2023-02-22T17:25:51.143Z,30.20
2023-02-22T17:28:52.939Z,13.40
2023-02-22T17:31:55.166Z,14.20
2023-02-22T17:34:57.013Z,14.02
2023-02-22T17:38:00.864Z,13.77
2023-02-22T17:41:03.444Z,13.20
2023-02-22T17:44:05.698Z,15.02
2023-02-22T17:47:07.915Z,14.63
2023-02-22T17:50:11.889Z,12.10
2023-02-22T17:53:14.491Z,15.82
2023-02-22T17:56:19.346Z,17.77
2023-02-22T17:59:22.530Z,13.32
2023-02-22T18:05:26.809Z,15.75
2023-02-22T18:08:31.178Z,17.15
2023-02-22T18:11:33.009Z,16.13
2023-02-22T18:14:34.865Z,19.48
2023-02-22T18:17:37.992Z,16.00
2023-02-22T18:20:44.675Z,12.05
2023-02-22T18:23:46.482Z,11.05
2023-02-22T18:26:48.444Z,9.25
2023-02-22T18:29:50.330Z,6.67
2023-02-22T18:32:52.286Z,9.95
2023-02-22T18:35:55.259Z,8.30
2023-02-22T18:41:58.850Z,9.40
2023-02-22T18:45:03.345Z,9.32
2023-02-22T18:48:05.246Z,10.15
2023-02-22T18:51:10.342Z,8.45
2023-02-22T18:54:13.254Z,10.20
2023-02-22T19:00:24.253Z,9.27
2023-02-22T19:03:26.611Z,8.85
2023-02-22T19:06:28.897Z,9.27
2023-02-22T19:09:31.204Z,8.05
2023-02-22T19:12:33.877Z,7.07
2023-02-22T19:15:35.740Z,6.97
2023-02-22T19:18:37.834Z,7.88
2023-02-22T19:21:39.886Z,7.38
2023-02-22T19:24:45.444Z,8.77
2023-02-22T19:27:47.252Z,7.20
2023-02-22T19:30:49.204Z,7.95
2023-02-22T19:33:53.795Z,6.67
2023-02-22T19:36:56.135Z,7.25
2023-02-22T19:39:58.019Z,6.90
2023-02-22T19:42:59.954Z,7.75
2023-02-22T19:46:06.725Z,6.70
2023-02-22T19:49:08.771Z,6.63
2023-02-22T19:52:10.855Z,7.43
2023-02-22T19:55:13.033Z,6.77
2023-02-22T19:58:15.518Z,6.03
2023-02-22T20:01:23.240Z,6.63
2023-02-22T20:04:25.864Z,7.78
2023-02-22T20:07:27.884Z,8.88
2023-02-22T20:10:29.865Z,6.67
2023-02-22T20:13:31.875Z,7.05
2023-02-22T20:16:35.485Z,8.37
2023-02-22T20:19:38.825Z,6.70
2023-02-22T20:22:40.784Z,7.32
2023-02-22T20:25:42.880Z,7.97
2023-02-22T20:28:45.298Z,6.72
2023-02-22T20:31:52.560Z,5.63
2023-02-22T20:34:54.517Z,9.02
2023-02-22T20:37:56.385Z,9.05
2023-02-22T20:40:58.287Z,14.38
2023-02-22T20:44:01.715Z,12.52
2023-02-22T20:47:04.079Z,15.98
2023-02-22T20:50:07.425Z,10.50
2023-02-22T20:53:09.291Z,9.00
2023-02-22T20:56:16.148Z,8.65
2023-02-22T20:59:19.322Z,12.07
2023-02-22T21:02:21.330Z,9.93
2023-02-22T21:05:23.213Z,9.03
2023-02-22T21:08:25.098Z,9.55
2023-02-22T21:11:30.673Z,8.53
2023-02-22T21:14:32.711Z,9.63
2023-02-22T21:17:36.483Z,9.47
2023-02-22T21:20:41.220Z,9.23
2023-02-22T21:23:43.366Z,19.23
2023-02-22T21:26:45.293Z,15.02
2023-02-22T21:29:47.233Z,10.10
2023-02-22T21:32:54.029Z,8.03
2023-02-22T21:35:55.926Z,10.30
2023-02-22T21:39:00.393Z,10.38
2023-02-22T21:42:02.781Z,25.20
2023-02-22T21:45:05.008Z,15.00
2023-02-22T21:48:06.874Z,13.07
2023-02-22T21:51:14.102Z,17.75
2023-02-22T21:54:16.946Z,15.60
2023-02-22T22:00:29.259Z,17.63
2023-02-22T22:03:31.293Z,14.30
2023-02-22T22:06:35.738Z,11.03
2023-02-22T22:09:41.351Z,11.50
2023-02-22T22:12:46.236Z,16.58
2023-02-22T22:15:48.713Z,31.88
2023-02-22T22:18:50.569Z,21.02
2023-02-22T22:21:54.111Z,18.77
2023-02-22T22:24:56.433Z,24.80
2023-02-22T22:27:58.562Z,22.77
2023-02-22T22:31:00.479Z,16.92
2023-02-22T22:34:02.821Z,26.08
2023-02-22T22:37:04.665Z,36.47
2023-02-22T22:40:10.686Z,28.08
2023-02-22T22:43:12.566Z,33.83
2023-02-22T22:46:16.737Z,19.73
2023-02-22T22:49:20.535Z,22.85
2023-02-22T22:52:24.350Z,26.52
2023-02-22T22:55:26.250Z,27.33
2023-02-22T22:58:28.139Z,25.23
2023-02-22T23:01:33.308Z,25.98
2023-02-22T23:04:36.903Z,25.05
2023-02-22T23:07:38.780Z,28.15
2023-02-22T23:10:41.333Z,30.90
2023-02-22T23:13:43.217Z,23.27
2023-02-22T23:16:46.274Z,29.13
2023-02-22T23:19:48.197Z,26.27
2023-02-22T23:22:50.011Z,33.30
2023-02-22T23:26:18.855Z,24.95
2023-02-22T23:29:22.938Z,30.27
2023-02-22T23:32:26.899Z,17.75
2023-02-22T23:35:28.866Z,16.30
2023-02-22T23:38:31.719Z,15.73
2023-02-22T23:41:36.476Z,14.05
2023-02-22T23:44:39.891Z,16.23
2023-02-22T23:47:43.691Z,16.10
2023-02-22T23:50:46.589Z,15.77
2023-02-22T23:56:57.831Z,10.55
